createdAt,value
2022-10-11T00:04:53.918Z,9.88
2022-10-11T00:09:58.838Z,9.25
2022-10-11T00:15:02.570Z,8.35
2022-10-11T00:20:08.342Z,8.45
2022-10-11T00:25:14.897Z,7.95
2022-10-11T00:30:18.880Z,8.20
2022-10-11T00:35:22.564Z,7.80
2022-10-11T00:40:27.503Z,7.72
2022-10-11T00:46:30.038Z,7.38
2022-10-11T00:51:45.255Z,7.40
2022-10-11T00:56:57.796Z,7.05
2022-10-11T01:02:01.584Z,6.45
2022-10-11T01:07:05.588Z,6.80
2022-10-11T01:12:20.778Z,7.05
2022-10-11T01:17:37.184Z,6.10
2022-10-11T01:24:07.470Z,6.25
2022-10-11T01:29:29.227Z,6.28
2022-10-11T01:34:41.689Z,5.93
2022-10-11T01:39:53.429Z,5.53
2022-10-11T01:44:58.679Z,5.80
2022-10-11T01:50:04.838Z,5.30
2022-10-11T01:55:22.314Z,5.40
2022-10-11T02:00:30.392Z,5.85
2022-10-11T02:05:47.565Z,5.25
2022-10-11T02:11:02.540Z,5.15
2022-10-11T02:16:13.710Z,5.18
2022-10-11T02:21:23.197Z,5.15
2022-10-11T02:26:30.532Z,4.97
2022-10-11T02:31:36.337Z,5.03
2022-10-11T02:36:52.267Z,4.18
2022-10-11T02:42:00.755Z,4.72
2022-10-11T02:47:06.534Z,4.10
2022-10-11T02:52:11.582Z,3.50
2022-10-11T02:57:15.209Z,3.25
2022-10-11T03:02:18.864Z,3.42
2022-10-11T03:07:23.994Z,3.08
2022-10-11T03:12:27.558Z,3.20
2022-10-11T03:17:36.517Z,2.65
2022-10-11T03:22:41.978Z,3.17
2022-10-11T03:27:45.759Z,3.15
2022-10-11T03:32:49.519Z,3.20
2022-10-11T03:37:54.395Z,2.70
2022-10-11T03:42:58.085Z,2.88
2022-10-11T03:48:01.767Z,2.88
2022-10-11T03:53:08.568Z,2.80
2022-10-11T03:58:12.217Z,2.70
2022-10-11T04:03:15.789Z,2.50
2022-10-11T04:08:20.596Z,2.55
2022-10-11T04:13:24.167Z,2.60
2022-10-11T04:18:27.567Z,2.30
2022-10-11T04:23:34.497Z,2.50
2022-10-11T04:28:38.012Z,2.40
2022-10-11T04:33:41.600Z,2.60
2022-10-11T04:38:46.776Z,2.15
2022-10-11T04:43:50.326Z,2.60
2022-10-11T04:48:53.902Z,2.30
2022-10-11T04:53:58.969Z,2.35
2022-10-11T04:59:02.474Z,2.33
2022-10-11T05:04:06.458Z,2.30
2022-10-11T05:09:11.269Z,2.15
2022-10-11T05:14:14.822Z,2.30
2022-10-11T05:19:18.354Z,2.30
2022-10-11T05:24:23.515Z,1.83
2022-10-11T05:29:27.655Z,1.90
2022-10-11T05:34:31.339Z,2.00
2022-10-11T05:39:36.217Z,1.63
2022-10-11T05:44:39.941Z,1.90
2022-10-11T05:49:43.421Z,1.73
2022-10-11T05:54:48.890Z,1.60
2022-10-11T05:59:52.570Z,1.63
2022-10-11T06:04:56.175Z,1.75
2022-10-11T06:10:01.792Z,1.60
2022-10-11T06:15:06.572Z,1.45
2022-10-11T06:20:11.437Z,1.63
2022-10-11T06:25:16.491Z,1.50
2022-10-11T06:30:20.208Z,1.60
2022-10-11T06:35:24.043Z,1.20
2022-10-11T06:40:29.338Z,1.40
2022-10-11T06:45:33.112Z,1.35
2022-10-11T06:50:58.456Z,1.50
2022-10-11T06:56:10.280Z,1.60
2022-10-11T07:01:19.532Z,1.50
2022-10-11T07:06:26.616Z,1.48
2022-10-11T07:11:32.586Z,1.43
2022-10-11T07:16:37.398Z,1.40
2022-10-11T07:21:40.927Z,1.42
2022-10-11T07:26:45.944Z,1.30
2022-10-11T07:31:49.458Z,1.40
2022-10-11T07:36:53.267Z,1.63
2022-10-11T07:41:58.147Z,1.70
2022-10-11T07:47:01.777Z,1.92
2022-10-11T07:52:05.475Z,2.60
2022-10-11T07:57:10.437Z,1.77
2022-10-11T08:02:15.228Z,2.60
2022-10-11T08:07:18.953Z,2.55
2022-10-11T08:12:23.803Z,2.85
2022-10-11T08:17:27.510Z,3.10
2022-10-11T08:22:31.297Z,2.83
2022-10-11T08:27:36.487Z,2.85
2022-10-11T08:32:39.999Z,2.38
2022-10-11T08:37:43.450Z,2.40
2022-10-11T08:42:57.972Z,2.65
2022-10-11T08:48:14.686Z,2.65
2022-10-11T08:53:29.877Z,2.83
2022-10-11T08:58:42.906Z,16.27
2022-10-11T09:03:48.886Z,14.35
2022-10-11T09:09:20.251Z,14.07
2022-10-11T09:14:58.736Z,12.10
2022-10-11T09:20:39.660Z,12.00
2022-10-11T09:25:52.991Z,10.85
2022-10-11T09:31:00.845Z,10.02
2022-10-11T09:36:20.291Z,9.70
2022-10-11T09:41:31.099Z,9.38
2022-10-11T09:46:39.539Z,8.70
2022-10-11T09:51:51.147Z,8.27
2022-10-11T09:56:55.376Z,7.60
2022-10-11T10:02:24.380Z,7.10
2022-10-11T10:07:31.418Z,6.50
2022-10-11T10:12:35.005Z,6.60
2022-10-11T10:17:40.079Z,6.10
2022-10-11T10:22:48.191Z,5.72
2022-10-11T10:28:00.043Z,5.53
2022-10-11T10:33:11.008Z,4.70
2022-10-11T10:38:26.552Z,4.53
2022-10-11T10:43:35.981Z,3.45
2022-10-11T10:54:29.066Z,4.60
2022-10-11T10:59:57.272Z,4.63
2022-10-11T11:05:18.959Z,4.28
2022-10-11T11:10:26.560Z,4.50
2022-10-11T11:15:38.154Z,4.45
2022-10-11T11:21:14.328Z,4.13
2022-10-11T11:26:28.964Z,4.07
2022-10-11T11:32:08.985Z,4.10
2022-10-11T11:37:28.030Z,3.95
2022-10-11T11:42:41.017Z,3.83
2022-10-11T11:47:54.163Z,4.10
2022-10-11T11:53:05.465Z,4.10
2022-10-11T11:58:31.828Z,3.60
2022-10-11T12:03:42.468Z,3.70
2022-10-11T12:08:56.636Z,3.58
2022-10-11T12:14:03.879Z,3.70
2022-10-11T12:19:08.342Z,3.80
2022-10-11T12:24:25.043Z,3.50
2022-10-11T12:29:49.619Z,3.55
2022-10-11T12:34:53.266Z,3.17
2022-10-11T12:40:00.602Z,3.22
2022-10-11T12:45:32.605Z,3.60
2022-10-11T12:50:52.643Z,3.15
2022-10-11T12:56:07.926Z,3.03
2022-10-11T13:01:22.728Z,3.08
2022-10-11T13:06:31.167Z,3.20
2022-10-11T13:11:44.562Z,3.13
2022-10-11T13:17:00.203Z,3.00
2022-10-11T13:22:15.182Z,3.17
2022-10-11T13:27:24.497Z,3.10
2022-10-11T13:32:31.933Z,3.00
2022-10-11T13:37:47.025Z,2.88
2022-10-11T13:42:54.216Z,2.90
2022-10-11T13:47:58.065Z,2.83
2022-10-11T13:53:04.904Z,2.45
2022-10-11T13:58:19.038Z,2.87
2022-10-11T14:03:24.737Z,2.30
2022-10-11T14:08:35.496Z,2.60
2022-10-11T14:13:42.770Z,2.42
2022-10-11T14:18:50.155Z,2.45
2022-10-11T14:23:55.850Z,2.25
2022-10-11T14:29:04.082Z,2.30
2022-10-11T14:34:08.848Z,2.50
2022-10-11T14:39:18.799Z,2.17
2022-10-11T14:44:24.394Z,2.33
2022-10-11T14:49:31.398Z,2.30
2022-10-11T14:54:35.724Z,2.27
2022-10-11T14:59:40.907Z,2.42
2022-10-11T15:04:44.605Z,2.10
2022-10-11T15:09:48.039Z,1.92
2022-10-11T15:14:53.366Z,2.15
2022-10-11T15:19:56.795Z,1.80
2022-10-11T15:25:00.329Z,2.00
2022-10-11T15:30:15.081Z,1.80
2022-10-11T15:35:20.662Z,1.70
2022-10-11T15:40:31.674Z,1.60
2022-10-11T15:45:37.532Z,1.77
2022-10-11T15:50:41.606Z,3.30
2022-10-11T15:55:49.515Z,3.20
2022-10-11T16:00:57.085Z,2.72
2022-10-11T16:06:05.187Z,2.90
2022-10-11T16:11:11.033Z,2.65
2022-10-11T16:16:15.873Z,2.70
2022-10-11T16:21:20.862Z,2.05
2022-10-11T16:26:24.485Z,2.28
2022-10-11T16:31:29.455Z,2.90
2022-10-11T16:36:35.630Z,2.30
2022-10-11T16:41:39.383Z,2.42
2022-10-11T16:46:47.799Z,2.10
2022-10-11T16:51:53.319Z,2.20
2022-10-11T16:56:57.181Z,1.90
2022-10-11T17:02:02.429Z,2.00
2022-10-11T17:07:12.244Z,1.90
2022-10-11T17:12:18.559Z,2.08
2022-10-11T17:17:23.786Z,2.00
2022-10-11T17:22:27.448Z,2.13
2022-10-11T17:27:31.290Z,2.05
2022-10-11T17:32:36.353Z,2.00
2022-10-11T17:37:39.892Z,1.80
2022-10-11T17:42:43.406Z,1.80
2022-10-11T17:47:48.360Z,1.70
2022-10-11T17:52:51.903Z,1.77
2022-10-11T17:57:55.380Z,1.90
2022-10-11T18:03:00.350Z,1.80
2022-10-11T18:08:03.969Z,1.60
2022-10-11T18:13:10.038Z,1.50
2022-10-11T18:18:18.281Z,1.60
2022-10-11T18:23:22.229Z,1.40
2022-10-11T18:28:26.011Z,1.60
2022-10-11T18:33:31.064Z,1.52
2022-10-11T18:38:35.889Z,1.50
2022-10-11T18:43:39.858Z,1.30
2022-10-11T18:48:47.857Z,1.33
2022-10-11T18:53:52.393Z,1.58
2022-10-11T18:58:58.422Z,1.20
2022-10-11T19:04:05.485Z,1.30
2022-10-11T19:09:13.051Z,1.30
2022-10-11T19:19:28.645Z,1.20
2022-10-11T19:24:33.634Z,1.20
2022-10-11T19:29:37.887Z,1.10
2022-10-11T19:34:42.881Z,1.10
2022-10-11T19:39:46.548Z,1.10
2022-10-11T19:44:50.096Z,1.33
2022-10-11T19:49:54.996Z,1.20
2022-10-11T19:54:58.568Z,1.00
2022-10-11T20:00:02.184Z,1.20
2022-10-11T20:05:10.348Z,1.10
2022-10-11T20:10:13.907Z,1.30
2022-10-11T20:15:17.845Z,1.00
2022-10-11T20:20:22.798Z,1.15
2022-10-11T20:25:26.497Z,1.20
2022-10-11T20:30:31.696Z,1.08
2022-10-11T20:35:36.752Z,1.40
2022-10-11T20:40:41.991Z,1.90
2022-10-11T20:45:47.289Z,2.38
2022-10-11T20:50:52.097Z,2.63
2022-10-11T20:55:56.599Z,3.95
2022-10-11T21:01:00.303Z,3.50
2022-10-11T21:06:05.600Z,3.78
2022-10-11T21:11:10.385Z,3.85
2022-10-11T21:16:18.119Z,14.32
2022-10-11T21:21:24.429Z,14.23
2022-10-11T21:26:29.154Z,14.57
2022-10-11T21:31:34.496Z,14.57
2022-10-11T21:36:39.617Z,14.20
2022-10-11T21:41:43.397Z,13.35
2022-10-11T21:47:06.980Z,14.07
2022-10-11T21:52:12.330Z,14.00
2022-10-11T21:57:15.934Z,13.90
2022-10-11T22:02:19.604Z,13.88
2022-10-11T22:07:24.601Z,13.23
2022-10-11T22:42:26.810Z,11.25
2022-10-11T22:47:31.455Z,11.00
2022-10-11T22:52:36.355Z,11.23
2022-10-11T22:57:39.798Z,10.60
2022-10-11T23:02:43.281Z,10.25
2022-10-11T23:07:49.897Z,9.88
2022-10-11T23:12:53.406Z,9.95
2022-10-11T23:17:57.115Z,8.43
2022-10-11T23:23:02.053Z,8.07
2022-10-11T23:28:06.383Z,7.88
2022-10-11T23:33:10.302Z,7.47
2022-10-11T23:38:15.092Z,7.18
2022-10-11T23:43:18.656Z,7.10
2022-10-11T23:48:22.331Z,6.00
2022-10-11T23:53:27.559Z,6.55
2022-10-11T23:58:31.250Z,6.40
